Time;durP1;ratioP1;P1;durP2;ratioP2;P2;SDS_P1;SDS_P2;PMS_P1;PMS_P2;Temp;Humidity;BMP_temperature;BMP_pressure;BME280_temperature;BME280_humidity;BME280_pressure;Samples;Min_cycle;Max_cycle;Signal;HPM_P1;HPM_P2
2021/12/31 00:00:47;;;;;;;88.50;43.50;;;;;;;-2.00;83.45;99753.83;1686739;84;20991;-77
2021/12/31 00:03:16;;;;;;;79.43;40.33;;;;;;;-1.97;83.50;99757.47;1686049;83;20972;-86
2021/12/31 00:05:44;;;;;;;77.07;40.20;;;;;;;-1.94;83.51;99757.13;1686289;83;20991;-77
2021/12/31 00:08:11;;;;;;;88.10;42.80;;;;;;;-1.96;83.43;99748.55;1692020;83;21139;-79
2021/12/31 00:10:39;;;;;;;72.03;34.47;;;;;;;-1.97;83.56;99746.93;1693147;83;20940;-79
2021/12/31 00:13:07;;;;;;;84.40;42.63;;;;;;;-1.97;83.68;99737.70;1686044;83;21027;-73
2021/12/31 00:15:35;;;;;;;78.60;43.07;;;;;;;-1.97;83.69;99734.58;1674326;83;21066;-74
2021/12/31 00:18:01;;;;;;;76.73;38.93;;;;;;;-1.92;83.74;99736.71;1691910;83;21170;-70
2021/12/31 00:20:29;;;;;;;76.67;39.73;;;;;;;-1.91;83.72;99729.11;1664416;84;21100;-71
2021/12/31 00:25:25;;;;;;;62.53;33.00;;;;;;;-1.94;83.60;99740.00;1662184;85;21032;-72
2021/12/31 00:27:51;;;;;;;62.43;33.53;;;;;;;-2.00;83.82;99742.80;1633688;86;21035;-74
2021/12/31 00:30:18;;;;;;;76.77;37.83;;;;;;;-1.98;83.91;99740.01;1678309;84;21055;-77
2021/12/31 00:32:47;;;;;;;82.17;41.00;;;;;;;-1.93;83.98;99733.73;1682106;85;20992;-78
2021/12/31 00:35:13;;;;;;;71.20;39.83;;;;;;;-1.94;83.89;99739.50;1681541;84;21115;-76
2021/12/31 00:37:40;;;;;;;77.83;41.03;;;;;;;-1.89;84.07;99741.63;1685842;84;21013;-73
2021/12/31 00:40:13;;;;;;;76.43;39.43;;;;;;;-1.84;84.05;99731.41;1659870;85;21040;-79
2021/12/31 00:42:39;;;;;;;84.00;41.50;;;;;;;-1.79;83.93;99727.77;1658692;84;27140;-82
2021/12/31 00:45:07;;;;;;;72.17;40.43;;;;;;;-1.80;83.92;99722.98;1648098;85;21109;-87
2021/12/31 00:47:34;;;;;;;69.33;39.43;;;;;;;-1.81;83.91;99714.75;1634379;87;22175;-80
2021/12/31 00:50:01;;;;;;;60.53;33.63;;;;;;;-1.73;84.16;99710.45;1633780;87;21563;-73
2021/12/31 00:52:28;;;;;;;68.83;36.97;;;;;;;-1.69;84.13;99702.53;1664647;85;20960;-75
2021/12/31 00:54:54;;;;;;;57.30;33.43;;;;;;;-1.69;84.04;99700.72;1617048;87;21045;-71
2021/12/31 00:57:20;;;;;;;67.43;37.97;;;;;;;-1.80;84.36;99686.09;1631349;86;21211;-73
2021/12/31 00:59:47;;;;;;;77.17;40.10;;;;;;;-1.84;84.61;99683.97;1666772;83;21236;-77
2021/12/31 01:02:16;;;;;;;67.87;35.33;;;;;;;-1.81;84.84;99684.44;1715850;83;21610;-75
2021/12/31 01:04:42;;;;;;;68.43;37.97;;;;;;;-1.74;85.06;99692.98;1717850;83;21542;-74
2021/12/31 01:07:08;;;;;;;66.10;36.90;;;;;;;-1.69;85.07;99685.39;1717662;82;20969;-75
2021/12/31 01:09:35;;;;;;;65.50;35.83;;;;;;;-1.72;85.09;99683.91;1716980;83;21181;-74
2021/12/31 01:12:05;;;;;;;65.90;38.63;;;;;;;-1.74;85.24;99683.27;1717580;82;21042;-74
2021/12/31 01:14:38;;;;;;;53.90;32.07;;;;;;;-1.77;85.44;99689.69;1712580;82;21612;-78
2021/12/31 01:17:08;;;;;;;65.37;38.00;;;;;;;-1.72;85.61;99703.67;1718040;83;21553;-77
2021/12/31 01:19:46;;;;;;;69.87;39.47;;;;;;;-1.69;85.53;99690.66;1734032;82;21052;-86
2021/12/31 01:22:17;;;;;;;61.30;34.10;;;;;;;-1.76;85.48;99690.02;1717881;83;21534;-74
2021/12/31 01:24:44;;;;;;;67.47;35.07;;;;;;;-1.78;85.68;99682.80;1673907;85;21972;-72
2021/12/31 01:27:11;;;;;;;64.57;34.47;;;;;;;-1.79;85.77;99669.28;1676833;85;21065;-73
2021/12/31 01:29:38;;;;;;;57.47;28.97;;;;;;;-1.77;85.82;99664.64;1688733;84;21036;-72
2021/12/31 01:32:05;;;;;;;63.50;34.80;;;;;;;-1.84;85.91;99655.80;1692399;83;21057;-76
2021/12/31 01:34:31;;;;;;;69.87;37.17;;;;;;;-1.91;86.02;99657.95;1656639;85;21794;-73
2021/12/31 01:36:59;;;;;;;64.37;34.00;;;;;;;-1.90;86.39;99657.79;1707847;83;20989;-68
2021/12/31 01:39:27;;;;;;;58.67;36.87;;;;;;;-1.85;86.46;99648.88;1716706;82;21123;-69
2021/12/31 01:41:56;;;;;;;59.00;34.10;;;;;;;-1.87;86.40;99657.44;1716663;82;21013;-69
2021/12/31 01:44:23;;;;;;;62.37;36.27;;;;;;;-1.93;86.54;99648.92;1687345;82;21160;-70
2021/12/31 01:46:55;;;;;;;68.20;35.23;;;;;;;-1.97;86.72;99650.75;1681458;84;21616;-72
2021/12/31 01:49:23;;;;;;;61.70;29.47;;;;;;;-1.99;86.92;99645.64;1684228;83;21067;-79
2021/12/31 01:51:49;;;;;;;62.53;37.40;;;;;;;-2.01;87.10;99647.61;1706914;83;21040;-75
2021/12/31 01:54:16;;;;;;;62.97;38.93;;;;;;;-2.12;87.36;99634.00;1693829;83;21662;-76
2021/12/31 01:56:42;;;;;;;61.43;36.50;;;;;;;-2.13;87.56;99636.30;1715793;82;21524;-74
2021/12/31 01:59:08;;;;;;;70.83;37.80;;;;;;;-2.05;87.85;99638.90;1717066;82;21833;-76
2021/12/31 02:01:36;;;;;;;60.13;33.30;;;;;;;-2.04;87.79;99634.79;1704002;83;20995;-73
2021/12/31 02:04:05;;;;;;;63.53;37.17;;;;;;;-2.00;87.99;99635.26;1684219;84;21065;-74
2021/12/31 02:06:34;;;;;;;62.03;35.73;;;;;;;-1.95;88.04;99640.84;1684240;84;21593;-74
2021/12/31 02:09:05;;;;;;;61.17;36.57;;;;;;;-1.88;87.99;99632.59;1707473;83;21055;-75
2021/12/31 02:11:31;;;;;;;62.30;33.63;;;;;;;-1.87;87.77;99630.29;1713002;82;21770;-72
2021/12/31 02:13:58;;;;;;;57.40;32.03;;;;;;;-1.84;87.93;99618.89;1704156;82;21507;-78
2021/12/31 02:16:26;;;;;;;70.10;36.67;;;;;;;-1.79;87.83;99617.89;1684412;84;21012;-77
2021/12/31 02:18:53;;;;;;;62.53;33.40;;;;;;;-1.76;87.72;99609.63;1709809;83;21083;-77
2021/12/31 02:21:21;;;;;;;56.67;34.53;;;;;;;-1.76;87.65;99604.35;1714516;82;20937;-75
2021/12/31 02:23:55;;;;;;;63.80;35.03;;;;;;;-1.78;87.55;99602.41;1714512;83;21166;-76
2021/12/31 02:26:22;;;;;;;62.93;35.17;;;;;;;-1.80;87.61;99603.55;1714582;83;21024;-76
2021/12/31 02:28:49;;;;;;;57.10;32.77;;;;;;;-1.85;87.74;99599.29;1714374;82;21554;-78
2021/12/31 02:31:15;;;;;;;64.70;38.87;;;;;;;-1.90;87.93;99605.58;1681262;83;21532;-76
2021/12/31 02:33:43;;;;;;;66.83;36.57;;;;;;;-1.86;88.11;99612.14;1715135;83;21031;-77
2021/12/31 02:36:11;;;;;;;61.57;36.27;;;;;;;-1.83;88.11;99617.09;1675304;85;21055;-77
2021/12/31 02:38:37;;;;;;;60.40;34.47;;;;;;;-1.84;87.97;99611.48;1685470;84;21519;-78
2021/12/31 02:41:03;;;;;;;65.37;38.20;;;;;;;-1.87;87.99;99608.68;1715765;83;21040;-77
2021/12/31 02:43:31;;;;;;;60.30;34.50;;;;;;;-1.81;88.15;99611.13;1679047;85;21064;-75
2021/12/31 02:45:57;;;;;;;60.67;33.77;;;;;;;-1.74;88.16;99611.27;1696676;82;21028;-79
2021/12/31 02:48:25;;;;;;;70.50;34.63;;;;;;;-1.65;88.11;99616.82;1679018;84;21801;-75
2021/12/31 02:50:54;;;;;;;56.90;32.73;;;;;;;-1.61;87.95;99606.25;1707632;83;21020;-75
2021/12/31 02:53:28;;;;;;;67.50;38.27;;;;;;;-1.56;87.85;99597.32;1713268;83;22231;-76
2021/12/31 02:56:07;;;;;;;60.27;37.07;;;;;;;-1.51;87.67;99601.57;1712693;83;21592;-75
2021/12/31 02:58:34;;;;;;;56.67;35.97;;;;;;;-1.58;87.22;99601.44;1692577;83;21105;-75
2021/12/31 03:01:01;;;;;;;63.83;33.27;;;;;;;-1.61;87.38;99609.70;1716872;83;21267;-74
2021/12/31 03:03:28;;;;;;;56.57;30.63;;;;;;;-1.63;87.36;99604.30;1718698;82;20999;-75
2021/12/31 03:05:55;;;;;;;58.90;34.70;;;;;;;-1.66;87.44;99605.94;1706408;83;21048;-74
2021/12/31 03:08:25;;;;;;;57.53;35.13;;;;;;;-1.75;87.55;99595.95;1714876;83;21049;-74
2021/12/31 03:10:52;;;;;;;62.83;37.10;;;;;;;-1.72;87.83;99598.72;1706575;82;21020;-76
2021/12/31 03:13:20;;;;;;;60.17;33.87;;;;;;;-1.69;87.91;99589.17;1719434;82;21532;-75
2021/12/31 03:15:48;;;;;;;60.87;37.47;;;;;;;-1.63;88.04;99591.91;1709309;83;20981;-77
2021/12/31 03:18:15;;;;;;;66.83;37.00;;;;;;;-1.51;88.17;99591.03;1711184;83;21008;-73
2021/12/31 03:20:46;;;;;;;60.27;37.00;;;;;;;-1.43;88.04;99583.88;1695110;83;21054;-79
2021/12/31 03:23:10;;;;;;;55.13;34.40;;;;;;;-1.37;87.83;99590.27;1717016;82;21505;-76
2021/12/31 03:25:36;;;;;;;61.93;35.40;;;;;;;-1.36;87.70;99591.92;1714678;83;21945;-76
2021/12/31 03:28:04;;;;;;;61.77;37.33;;;;;;;-1.45;87.53;99595.61;1706242;83;21708;-73
2021/12/31 03:30:30;;;;;;;62.90;35.70;;;;;;;-1.46;87.82;99586.88;1706495;83;21068;-74
2021/12/31 03:32:57;;;;;;;67.93;37.20;;;;;;;-1.39;87.99;99589.64;1715062;83;21562;-75
2021/12/31 03:35:24;;;;;;;64.50;37.20;;;;;;;-1.29;88.08;99588.09;1719058;83;21560;-76
2021/12/31 03:37:50;;;;;;;61.63;38.57;;;;;;;-1.27;87.85;99589.54;1714915;83;23378;-78
2021/12/31 03:40:16;;;;;;;63.03;39.03;;;;;;;-1.23;87.73;99586.87;1719097;82;21103;-77
2021/12/31 03:42:42;;;;;;;67.20;39.10;;;;;;;-1.27;87.64;99587.39;1706443;83;21036;-76
2021/12/31 03:45:10;;;;;;;64.23;37.97;;;;;;;-1.25;87.83;99578.33;1719461;83;21036;-76
2021/12/31 03:47:38;;;;;;;70.03;40.67;;;;;;;-1.25;87.70;99580.97;1714970;83;20982;-78
2021/12/31 03:50:06;;;;;;;60.13;36.43;;;;;;;-1.26;87.82;99571.90;1719574;83;21111;-76
2021/12/31 03:52:38;;;;;;;56.93;35.03;;;;;;;-1.25;87.88;99572.22;1714939;83;20954;-77
2021/12/31 03:55:07;;;;;;;60.60;34.70;;;;;;;-1.22;88.04;99574.50;1714868;83;21009;-78
2021/12/31 03:57:34;;;;;;;51.37;32.93;;;;;;;-1.22;87.95;99575.81;1706750;83;21087;-77
2021/12/31 04:00:00;;;;;;;60.57;36.70;;;;;;;-1.22;88.12;99570.54;1714930;83;21024;-78
2021/12/31 04:02:26;;;;;;;51.97;31.13;;;;;;;-1.19;88.23;99569.68;1718177;82;21242;-76
2021/12/31 04:04:53;;;;;;;61.67;37.23;;;;;;;-1.14;88.30;99575.73;1715210;83;21053;-75
2021/12/31 04:07:21;;;;;;;58.23;35.83;;;;;;;-1.12;88.30;99575.90;1706503;83;21044;-78
2021/12/31 04:09:48;;;;;;;60.70;36.80;;;;;;;-1.10;88.38;99569.93;1692371;83;21034;-77
2021/12/31 04:12:15;;;;;;;58.10;34.33;;;;;;;-1.07;88.42;99567.45;1719205;82;21054;-76
2021/12/31 04:14:41;;;;;;;55.73;35.30;;;;;;;-1.07;88.39;99559.03;1708471;83;21516;-77
2021/12/31 04:17:07;;;;;;;62.23;35.33;;;;;;;-1.08;88.50;99560.52;1700966;83;21094;-76
2021/12/31 04:19:35;;;;;;;58.67;34.17;;;;;;;-1.14;88.67;99555.95;1718066;82;20910;-77
2021/12/31 04:22:02;;;;;;;56.03;33.17;;;;;;;-1.23;88.82;99557.84;1692253;83;21016;-78
2021/12/31 04:24:51;;;;;;;52.73;34.50;;;;;;;-1.23;89.05;99564.44;1711435;83;21055;-75
2021/12/31 04:26:57;;;;;;;57.83;34.40;;;;;;;-1.21;89.25;99558.50;1701434;83;22667;-78
2021/12/31 04:29:23;;;;;;;52.47;30.80;;;;;;;-1.17;89.44;99554.50;1720210;83;21025;-76
2021/12/31 04:31:50;;;;;;;53.83;33.97;;;;;;;-1.12;89.57;99560.56;1720551;83;21007;-75
2021/12/31 04:34:17;;;;;;;52.13;32.33;;;;;;;-1.09;89.67;99551.78;1719943;82;20928;-77
2021/12/31 04:36:43;;;;;;;54.50;32.17;;;;;;;-1.04;89.72;99553.89;1695364;82;21020;-76
2021/12/31 04:39:10;;;;;;;57.67;38.47;;;;;;;-1.05;89.84;99553.56;1715046;83;23376;-77
2021/12/31 04:41:36;;;;;;;47.70;28.60;;;;;;;-1.06;89.93;99551.95;1718792;83;20952;-76
2021/12/31 04:44:03;;;;;;;62.23;37.37;;;;;;;-1.05;90.09;99549.11;1719220;83;21103;-76
2021/12/31 04:46:29;;;;;;;56.13;33.67;;;;;;;-1.05;90.17;99549.11;1719117;82;21062;-78
2021/12/31 04:48:56;;;;;;;63.90;38.17;;;;;;;-1.06;90.32;99533.47;1719296;82;21612;-77
2021/12/31 04:51:22;;;;;;;63.83;38.23;;;;;;;-1.06;90.42;99535.61;1706131;83;21953;-76
2021/12/31 04:53:48;;;;;;;54.23;34.13;;;;;;;-1.04;90.56;99528.81;1719295;82;20949;-80
2021/12/31 04:56:14;;;;;;;58.13;35.13;;;;;;;-0.99;90.69;99531.24;1719013;83;21106;-76
2021/12/31 04:58:41;;;;;;;53.13;29.97;;;;;;;-0.98;90.69;99531.57;1719137;83;21016;-78
2021/12/31 05:01:07;;;;;;;59.33;36.40;;;;;;;-0.94;90.85;99529.37;1718383;82;21044;-78
2021/12/31 05:03:34;;;;;;;62.07;37.90;;;;;;;-0.93;90.90;99529.21;1702423;84;21247;-77
2021/12/31 05:06:01;;;;;;;60.43;39.73;;;;;;;-0.92;90.98;99524.76;1691580;84;20975;-75
2021/12/31 05:08:28;;;;;;;59.03;35.20;;;;;;;-0.85;91.20;99524.84;1706549;83;21018;-76
2021/12/31 05:10:55;;;;;;;54.77;34.77;;;;;;;-0.80;91.19;99523.80;1696241;83;21063;-74
2021/12/31 05:13:21;;;;;;;67.87;39.67;;;;;;;-0.76;91.18;99527.70;1708960;83;21079;-76
2021/12/31 05:15:51;;;;;;;56.07;35.40;;;;;;;-0.76;91.17;99528.53;1708995;83;21470;-76
2021/12/31 05:18:17;;;;;;;55.63;33.47;;;;;;;-0.78;91.24;99525.77;1681061;84;21121;-75
2021/12/31 05:20:43;;;;;;;60.07;35.10;;;;;;;-0.82;91.29;99520.03;1717333;83;21055;-76
2021/12/31 05:23:10;;;;;;;62.03;36.40;;;;;;;-0.87;91.36;99523.72;1717149;82;21052;-77
2021/12/31 05:25:36;;;;;;;59.80;34.67;;;;;;;-0.89;91.60;99525.20;1717501;82;21521;-78
2021/12/31 05:28:03;;;;;;;54.30;32.23;;;;;;;-0.84;91.75;99531.27;1717959;82;21103;-75
2021/12/31 05:30:29;;;;;;;54.53;32.63;;;;;;;-0.82;91.82;99527.95;1709086;83;21259;-76
2021/12/31 05:32:56;;;;;;;51.57;31.70;;;;;;;-0.80;91.91;99527.76;1717444;83;20991;-73
2021/12/31 05:35:22;;;;;;;56.20;33.27;;;;;;;-0.76;92.06;99521.11;1683515;85;21054;-75
2021/12/31 05:37:50;;;;;;;57.80;34.77;;;;;;;-0.70;92.17;99526.98;1715747;83;21000;-75
2021/12/31 05:40:16;;;;;;;58.33;33.67;;;;;;;-0.68;92.10;99522.36;1717153;82;21147;-75
2021/12/31 05:42:42;;;;;;;59.50;36.43;;;;;;;-0.70;92.08;99514.61;1665443;83;21063;-76
2021/12/31 05:45:09;;;;;;;55.20;32.60;;;;;;;-0.70;92.14;99521.71;1715989;83;21644;-75
2021/12/31 05:47:37;;;;;;;57.43;36.50;;;;;;;-0.75;92.25;99522.26;1715872;83;21092;-75
2021/12/31 05:50:08;;;;;;;56.23;36.13;;;;;;;-0.75;92.41;99518.80;1697410;83;21041;-76
2021/12/31 05:52:34;;;;;;;52.20;32.47;;;;;;;-0.79;92.65;99515.70;1698062;83;21187;-75
2021/12/31 05:55:00;;;;;;;54.70;34.97;;;;;;;-0.80;92.71;99519.34;1715724;83;20953;-75
2021/12/31 05:57:27;;;;;;;50.00;29.53;;;;;;;-0.74;92.96;99524.40;1708698;83;21043;-74
2021/12/31 05:59:54;;;;;;;53.57;33.07;;;;;;;-0.70;93.11;99515.11;1705593;82;21547;-73
2021/12/31 06:02:20;;;;;;;49.30;31.97;;;;;;;-0.76;92.96;99516.65;1673649;85;22195;-77
2021/12/31 06:04:47;;;;;;;59.10;34.43;;;;;;;-0.83;93.06;99519.71;1705976;83;21741;-79
2021/12/31 06:07:13;;;;;;;56.07;35.87;;;;;;;-0.84;93.33;99514.60;1698003;83;22181;-77
2021/12/31 06:09:39;;;;;;;56.43;35.93;;;;;;;-0.82;93.64;99515.25;1678261;83;21004;-77
2021/12/31 06:12:07;;;;;;;57.43;33.30;;;;;;;-0.84;93.62;99521.20;1658129;85;21063;-77
2021/12/31 06:14:35;;;;;;;52.73;31.93;;;;;;;-0.80;93.83;99524.62;1696314;83;20982;-78
2021/12/31 06:17:06;;;;;;;63.17;37.23;;;;;;;-0.74;93.90;99526.55;1712519;83;21118;-78
2021/12/31 06:19:30;;;;;;;56.20;34.77;;;;;;;-0.69;93.88;99533.92;1714285;82;20922;-76
2021/12/31 06:21:56;;;;;;;52.93;31.90;;;;;;;-0.67;93.89;99526.65;1699834;83;21047;-76
2021/12/31 06:24:23;;;;;;;52.83;32.23;;;;;;;-0.72;93.69;99527.16;1676588;85;21113;-75
2021/12/31 06:26:51;;;;;;;57.27;36.97;;;;;;;-0.75;93.82;99520.94;1678358;85;21030;-77
2021/12/31 06:29:17;;;;;;;59.47;36.30;;;;;;;-0.70;94.00;99525.67;1690202;83;21213;-74
2021/12/31 06:31:43;;;;;;;62.67;38.87;;;;;;;-0.64;94.18;99524.95;1714157;82;21060;-77
2021/12/31 06:34:09;;;;;;;57.80;37.10;;;;;;;-0.56;94.23;99529.64;1714919;82;21623;-79
2021/12/31 06:36:36;;;;;;;57.70;35.00;;;;;;;-0.52;94.08;99532.73;1674231;85;21562;-78
2021/12/31 06:39:03;;;;;;;57.30;35.20;;;;;;;-0.50;93.92;99534.20;1686075;84;20994;-80
2021/12/31 06:41:30;;;;;;;55.17;35.63;;;;;;;-0.47;93.88;99530.36;1682088;85;21509;-80
2021/12/31 06:43:56;;;;;;;55.93;34.47;;;;;;;-0.47;93.82;99531.18;1655467;85;20984;-78
2021/12/31 06:46:22;;;;;;;59.23;35.17;;;;;;;-0.43;93.88;99538.23;1682120;85;21054;-79
2021/12/31 06:48:49;;;;;;;58.27;37.03;;;;;;;-0.43;93.78;99540.08;1753381;81;21067;-81
2021/12/31 06:51:16;;;;;;;58.40;35.70;;;;;;;-0.51;93.68;99539.16;1714494;82;21055;-79
2021/12/31 06:53:42;;;;;;;58.60;34.17;;;;;;;-0.48;93.93;99538.78;1684675;85;21049;-79
2021/12/31 06:56:09;;;;;;;61.23;34.67;;;;;;;-0.44;94.02;99537.94;1676995;84;21067;-80
2021/12/31 06:58:37;;;;;;;48.17;28.83;;;;;;;-0.39;94.10;99539.53;1698135;83;21646;-80
2021/12/31 07:01:03;;;;;;;60.90;37.20;;;;;;;-0.37;94.00;99546.75;1713718;82;21075;-78
2021/12/31 07:03:31;;;;;;;53.97;33.43;;;;;;;-0.42;93.89;99550.94;1695189;82;21054;-78
2021/12/31 07:05:58;;;;;;;60.67;36.37;;;;;;;-0.42;94.13;99554.41;1682064;84;21802;-78
2021/12/31 07:08:25;;;;;;;57.30;36.43;;;;;;;-0.42;94.22;99548.30;1713083;82;20998;-79
2021/12/31 07:10:54;;;;;;;60.43;34.67;;;;;;;-0.40;94.36;99543.17;1717535;82;21076;-79
2021/12/31 07:13:20;;;;;;;62.90;36.73;;;;;;;-0.35;94.41;99555.83;1718354;82;21016;-80
2021/12/31 07:15:49;;;;;;;59.50;36.00;;;;;;;-0.34;94.42;99555.66;1718278;82;21001;-80
2021/12/31 07:18:17;;;;;;;54.80;32.43;;;;;;;-0.34;94.67;99546.41;1684850;84;21009;-80
2021/12/31 07:20:43;;;;;;;62.60;36.23;;;;;;;-0.39;94.78;99544.81;1707971;83;21028;-80
2021/12/31 07:23:13;;;;;;;64.73;37.20;;;;;;;-0.39;94.97;99537.39;1716847;83;21140;-77
2021/12/31 07:25:40;;;;;;;65.63;39.30;;;;;;;-0.35;95.20;99534.69;1709140;83;21079;-79
2021/12/31 07:28:07;;;;;;;72.73;40.87;;;;;;;-0.33;95.43;99534.81;1717628;82;21087;-74
2021/12/31 07:30:34;;;;;;;64.53;37.00;;;;;;;-0.29;95.49;99529.50;1708751;83;21020;-76
2021/12/31 07:33:00;;;;;;;62.87;36.87;;;;;;;-0.25;95.56;99524.66;1717534;83;20980;-76
2021/12/31 07:35:27;;;;;;;61.90;32.47;;;;;;;-0.21;95.62;99533.86;1687289;85;21023;-75
2021/12/31 07:37:55;;;;;;;60.30;32.83;;;;;;;-0.23;95.83;99530.56;1687783;83;21459;-77
2021/12/31 07:40:37;;;;;;;50.73;29.90;;;;;;;-0.28;95.81;99541.69;1708809;83;21490;-77
2021/12/31 07:42:54;;;;;;;69.90;37.80;;;;;;;-0.26;96.12;99538.88;1687057;84;21133;-77
2021/12/31 07:45:20;;;;;;;59.47;34.67;;;;;;;-0.27;96.23;99534.58;1686358;84;21608;-75
2021/12/31 07:47:47;;;;;;;64.73;36.47;;;;;;;-0.20;96.50;99536.33;1697009;84;21469;-76
2021/12/31 07:50:13;;;;;;;59.50;32.87;;;;;;;-0.15;96.55;99533.12;1706409;84;21037;-78
2021/12/31 07:52:40;;;;;;;58.60;34.50;;;;;;;-0.15;96.58;99538.41;1706445;83;21053;-75
2021/12/31 07:55:08;;;;;;;63.47;37.00;;;;;;;-0.18;96.64;99532.16;1689957;84;21061;-75
2021/12/31 07:57:36;;;;;;;74.53;41.83;;;;;;;-0.17;96.80;99531.16;1706493;84;21534;-76
2021/12/31 08:00:05;;;;;;;59.70;33.50;;;;;;;-0.16;96.93;99528.34;1701797;83;21636;-79
2021/12/31 08:02:33;;;;;;;72.00;38.40;;;;;;;-0.10;97.21;99526.78;1689852;83;21004;-81
2021/12/31 08:05:00;;;;;;;68.73;38.20;;;;;;;-0.03;97.27;99528.48;1685946;83;21063;-80
2021/12/31 08:07:27;;;;;;;67.50;39.63;;;;;;;-0.02;97.26;99530.13;1709259;82;21492;-73
2021/12/31 08:09:53;;;;;;;67.00;37.83;;;;;;;0.00;97.29;99514.09;1667483;85;21648;-76
2021/12/31 08:12:20;;;;;;;61.77;35.87;;;;;;;0.05;97.43;99518.30;1674409;85;21569;-77
2021/12/31 08:14:46;;;;;;;63.37;39.50;;;;;;;0.09;97.43;99512.16;1714564;83;21052;-78
2021/12/31 08:17:13;;;;;;;54.37;32.23;;;;;;;0.12;97.47;99514.41;1703925;83;21052;-77
2021/12/31 08:19:39;;;;;;;65.77;35.07;;;;;;;0.14;97.54;99517.70;1714673;82;22079;-75
2021/12/31 08:22:06;;;;;;;67.73;39.17;;;;;;;0.14;97.49;99508.45;1708955;83;21031;-79
2021/12/31 08:24:34;;;;;;;65.83;38.37;;;;;;;0.09;97.49;99515.62;1714404;83;21055;-77
2021/12/31 08:27:01;;;;;;;78.33;41.07;;;;;;;0.06;97.71;99525.72;1714378;83;21054;-77
2021/12/31 08:29:27;;;;;;;76.00;43.30;;;;;;;0.08;97.95;99522.41;1701189;83;21099;-77
2021/12/31 08:31:55;;;;;;;67.77;38.07;;;;;;;0.14;98.18;99523.81;1709403;83;20937;-80
2021/12/31 08:34:21;;;;;;;68.60;41.17;;;;;;;0.21;98.36;99511.96;1702034;82;21538;-76
2021/12/31 08:36:48;;;;;;;78.60;41.47;;;;;;;0.22;98.31;99513.11;1703881;82;21072;-77
2021/12/31 08:39:14;;;;;;;71.30;41.33;;;;;;;0.26;98.40;99519.66;1714639;82;21609;-75
2021/12/31 08:41:41;;;;;;;89.23;47.20;;;;;;;0.25;98.43;99514.05;1703994;83;21123;-78
2021/12/31 08:44:07;;;;;;;65.83;38.00;;;;;;;0.27;98.52;99518.66;1695439;83;21536;-75
2021/12/31 08:46:35;;;;;;;73.07;39.47;;;;;;;0.31;98.80;99514.63;1658277;85;20975;-77
2021/12/31 08:49:03;;;;;;;61.33;34.47;;;;;;;0.33;98.80;99507.33;1688214;83;21284;-76
2021/12/31 08:51:29;;;;;;;76.27;42.07;;;;;;;0.35;98.96;99501.83;1714460;82;21059;-75
2021/12/31 08:53:56;;;;;;;79.17;41.87;;;;;;;0.33;98.84;99503.87;1714457;82;21083;-75
2021/12/31 08:56:22;;;;;;;72.53;38.80;;;;;;;0.35;98.96;99509.27;1714437;82;21320;-74
2021/12/31 08:58:50;;;;;;;72.87;39.93;;;;;;;0.41;99.23;99509.02;1696028;83;21078;-74
2021/12/31 09:01:17;;;;;;;67.53;38.80;;;;;;;0.49;99.43;99509.38;1710452;83;21020;-73
2021/12/31 09:03:45;;;;;;;71.50;37.10;;;;;;;0.53;99.47;99508.03;1717216;83;21052;-72
2021/12/31 09:06:17;;;;;;;74.37;42.47;;;;;;;0.53;99.54;99506.17;1712889;82;20991;-72
2021/12/31 09:08:44;;;;;;;67.83;36.53;;;;;;;0.49;99.49;99505.42;1692034;83;23967;-74
2021/12/31 09:11:10;;;;;;;73.07;35.77;;;;;;;0.53;99.68;99507.49;1717215;83;20984;-71
2021/12/31 09:13:38;;;;;;;79.13;38.07;;;;;;;0.56;99.80;99506.31;1708307;83;21012;-74
2021/12/31 09:16:04;;;;;;;73.93;38.37;;;;;;;0.51;99.72;99509.53;1663566;84;23664;-71
2021/12/31 09:18:30;;;;;;;71.90;39.87;;;;;;;0.50;99.96;99501.77;1675129;85;21079;-76
2021/12/31 09:20:57;;;;;;;56.73;31.23;;;;;;;0.51;100.00;99502.91;1716854;83;21514;-74
2021/12/31 09:23:23;;;;;;;66.90;35.50;;;;;;;0.57;100.00;99494.73;1717621;83;21055;-76
2021/12/31 09:25:49;;;;;;;66.63;36.90;;;;;;;0.60;100.00;99496.98;1715504;82;21060;-76
2021/12/31 09:28:16;;;;;;;72.23;37.47;;;;;;;0.63;100.00;99493.44;1662028;85;21039;-75
2021/12/31 09:30:44;;;;;;;84.17;41.27;;;;;;;0.64;100.00;99489.80;1709156;83;21320;-73
2021/12/31 09:33:12;;;;;;;79.23;40.17;;;;;;;0.66;100.00;99483.81;1687127;84;21144;-74
2021/12/31 09:35:39;;;;;;;78.10;38.20;;;;;;;0.68;100.00;99485.75;1684493;84;20967;-76
2021/12/31 09:38:09;;;;;;;82.87;44.07;;;;;;;0.68;100.00;99481.78;1686421;84;21558;-74
2021/12/31 09:40:36;;;;;;;78.67;44.10;;;;;;;0.72;100.00;99479.05;1704749;83;21092;-74
2021/12/31 09:43:09;;;;;;;87.27;41.97;;;;;;;0.80;100.00;99485.55;1712646;82;21012;-79
2021/12/31 09:45:37;;;;;;;84.52;39.58;;;;;;;0.84;100.00;99478.86;1665583;85;21162;-76
2021/12/31 09:48:12;;;;;;;74.73;43.50;;;;;;;0.94;100.00;99480.35;1697296;83;21046;-76
2021/12/31 09:50:43;;;;;;;70.50;35.50;;;;;;;1.00;100.00;99482.23;1703522;83;20940;-75
2021/12/31 09:53:12;;;;;;;67.85;35.17;;;;;;;1.00;100.00;99480.41;1671328;83;21087;-74
2021/12/31 09:55:44;;;;;;;64.27;34.20;;;;;;;1.03;100.00;99476.54;1716021;83;21095;-76
2021/12/31 09:58:12;;;;;;;72.83;38.80;;;;;;;1.04;100.00;99475.03;1708940;83;21635;-77
2021/12/31 10:00:44;;;;;;;85.97;41.33;;;;;;;1.04;100.00;99479.51;1665930;85;21019;-80
2021/12/31 10:03:21;;;;;;;74.97;39.80;;;;;;;1.04;100.00;99468.92;1700462;83;21025;-77
2021/12/31 10:05:51;;;;;;;90.83;44.10;;;;;;;1.06;100.00;99470.34;1715908;82;21016;-76
2021/12/31 10:08:27;;;;;;;88.87;43.77;;;;;;;1.10;100.00;99463.67;1719809;82;20978;-75
2021/12/31 10:11:17;;;;;;;74.20;38.78;;;;;;;1.09;100.00;99460.70;1699895;83;21842;-77
2021/12/31 10:13:53;;;;;;;73.17;37.77;;;;;;;1.12;100.00;99462.95;1719107;82;20964;-75
2021/12/31 10:16:34;;;;;;;84.87;43.93;;;;;;;1.11;100.00;99459.98;1693131;83;20968;-79
2021/12/31 10:19:16;;;;;;;93.47;45.20;;;;;;;1.08;100.00;99455.59;1713733;83;21047;-79
2021/12/31 10:21:52;;;;;;;73.27;39.10;;;;;;;1.12;100.00;99458.16;1719152;83;21042;-77
2021/12/31 10:24:35;;;;;;;91.37;42.50;;;;;;;1.16;100.00;99451.45;1691879;83;21291;-78
2021/12/31 10:27:20;;;;;;;70.90;36.33;;;;;;;1.18;100.00;99437.53;1719172;82;21099;-77
2021/12/31 10:29:54;;;;;;;65.73;35.57;;;;;;;1.24;100.00;99436.75;1691457;83;21027;-81
2021/12/31 10:32:24;;;;;;;69.23;33.73;;;;;;;1.33;100.00;99436.08;1715059;83;21158;-76
2021/12/31 10:34:51;;;;;;;84.13;43.27;;;;;;;1.38;100.00;99436.30;1687820;83;21056;-80
2021/12/31 10:37:24;;;;;;;83.87;42.50;;;;;;;1.36;100.00;99436.49;1687435;83;21331;-80
2021/12/31 10:40:02;;;;;;;;;;;;;;;1.34;100.00;99429.77;1717284;83;20961;-79
2021/12/31 10:42:33;;;;;;;85.27;44.33;;;;;;;1.34;100.00;99431.09;1711121;83;20089;-77
2021/12/31 10:45:03;;;;;;;84.93;42.90;;;;;;;1.38;100.00;99438.95;1710812;83;20996;-80
2021/12/31 10:47:37;;;;;;;88.03;43.90;;;;;;;1.46;100.00;99430.33;1689473;83;20941;-79
2021/12/31 10:50:12;;;;;;;79.25;42.15;;;;;;;1.52;100.00;99420.27;1710783;83;21012;-78
2021/12/31 10:52:56;;;;;;;84.85;42.08;;;;;;;1.56;100.00;99420.68;1679344;83;21150;-79
2021/12/31 10:55:27;;;;;;;85.93;41.77;;;;;;;1.55;100.00;99426.98;1698232;83;21054;-80
2021/12/31 10:57:58;;;;;;;81.87;41.90;;;;;;;1.59;100.00;99428.22;1701432;82;21091;-86
2021/12/31 11:00:34;;;;;;;99.70;50.57;;;;;;;1.60;100.00;99426.71;1685976;83;21659;-77
2021/12/31 11:03:03;;;;;;;87.02;45.60;;;;;;;1.61;100.00;99424.88;1709846;83;21190;-79
2021/12/31 11:05:30;;;;;;;77.00;38.60;;;;;;;1.66;100.00;99423.78;1710822;82;21064;-84
2021/12/31 11:08:07;;;;;;;93.35;43.28;;;;;;;1.70;100.00;99425.02;1711138;83;20934;-84
2021/12/31 11:10:39;;;;;;;93.85;43.28;;;;;;;1.72;100.00;99422.98;1705822;83;21013;-81
2021/12/31 11:13:22;;;;;;;88.03;42.17;;;;;;;1.74;100.00;99420.94;1711307;82;21093;-80
2021/12/31 11:15:52;;;;;;;93.87;47.85;;;;;;;1.75;100.00;99415.95;1710790;83;21182;-84
2021/12/31 11:18:24;;;;;;;83.47;43.35;;;;;;;1.78;100.00;99420.02;1709413;83;20989;-78
2021/12/31 11:20:55;;;;;;;96.30;49.13;;;;;;;1.76;100.00;99417.59;1691790;83;21067;-85
2021/12/31 11:23:33;;;;;;;90.47;47.43;;;;;;;1.74;100.00;99415.13;1677698;83;21072;-86
2021/12/31 11:26:13;;;;;;;88.75;44.40;;;;;;;1.80;100.00;99413.52;1715485;83;20967;-84